Terminal Aerodrome Forecast
Issued by NWS Duluth, MN

Home | Current Version | Previous Version | Text Only | Print | Product List | Glossary On
Versions: 1 2 3 4 5 6 7 8 9 10 11 12 13 14 15 16 17 18 19 20 21 22 23 24 25 26 27 28 29 30
817
FTUS43 KDLH 191018 AAC
TAFDLH
TAF AMD
KDLH 191018Z 1910/2006 27005KT P6SM SKC
      TEMPO 1911/1913 1SM BR
     FM191400 27007KT P6SM SKC
     FM191800 27010KT P6SM SCT250
     FM192300 24006KT P6SM SCT250=

USA.gov is the U.S. government's official web portal to all federal, state and local government web resources and services.